createdAt,value
2017-06-28T00:02:14.369Z,59.60
2017-06-28T00:04:43.425Z,59.80
2017-06-28T00:07:11.670Z,59.80
2017-06-28T00:09:39.903Z,59.70
2017-06-28T00:12:08.926Z,59.80
2017-06-28T00:14:37.164Z,59.70
2017-06-28T00:17:06.186Z,60.50
2017-06-28T00:19:34.434Z,59.70
2017-06-28T00:22:02.757Z,59.80
2017-06-28T00:24:30.992Z,59.80
2017-06-28T00:27:00.125Z,60.00
2017-06-28T00:29:28.478Z,60.00
2017-06-28T00:31:56.728Z,59.90
2017-06-28T00:34:24.970Z,60.00
2017-06-28T00:36:53.329Z,60.00
2017-06-28T00:39:21.636Z,60.10
2017-06-28T00:41:49.889Z,60.00
2017-06-28T00:44:18.125Z,60.20
2017-06-28T00:46:47.252Z,59.90
2017-06-28T00:49:15.508Z,59.90
2017-06-28T00:51:43.753Z,60.00
2017-06-28T00:54:11.998Z,59.90
2017-06-28T00:56:40.427Z,60.00
2017-06-28T00:59:09.425Z,60.00
2017-06-28T01:01:37.683Z,60.00
2017-06-28T01:04:06.694Z,60.80
2017-06-28T01:06:35.689Z,60.00
2017-06-28T01:09:03.942Z,59.90
2017-06-28T01:11:32.944Z,59.40
2017-06-28T01:14:01.965Z,59.80
2017-06-28T01:16:30.204Z,59.70
2017-06-28T01:18:59.225Z,59.70
2017-06-28T01:21:27.521Z,59.60
2017-06-28T01:23:55.769Z,59.50
2017-06-28T01:26:24.009Z,59.40
2017-06-28T01:28:52.261Z,59.50
2017-06-28T01:31:20.614Z,59.40
2017-06-28T01:33:48.862Z,59.00
2017-06-28T01:36:17.185Z,59.00
2017-06-28T01:38:45.439Z,59.00
2017-06-28T01:41:13.716Z,59.10
2017-06-28T01:43:42.029Z,59.10
2017-06-28T01:46:10.370Z,59.00
2017-06-28T01:48:38.626Z,58.80
2017-06-28T01:51:06.864Z,58.80
2017-06-28T01:53:35.105Z,58.80
2017-06-28T01:56:03.439Z,58.80
2017-06-28T01:58:32.458Z,59.10
2017-06-28T02:01:00.688Z,59.10
2017-06-28T02:03:28.937Z,59.30
2017-06-28T02:05:57.169Z,59.40
2017-06-28T02:08:25.419Z,59.40
2017-06-28T02:10:53.661Z,59.30
2017-06-28T02:13:21.933Z,59.30
2017-06-28T02:15:50.178Z,59.30
2017-06-28T02:18:18.478Z,59.30
2017-06-28T02:20:46.845Z,59.40
2017-06-28T02:23:15.117Z,59.60
2017-06-28T02:25:43.374Z,59.80
2017-06-28T02:28:11.679Z,59.60
2017-06-28T02:30:40.009Z,59.70
2017-06-28T02:33:09.070Z,59.80
2017-06-28T02:35:37.338Z,59.80
2017-06-28T02:38:05.641Z,59.70
2017-06-28T02:40:33.965Z,59.80
2017-06-28T02:43:02.214Z,60.00
2017-06-28T02:45:31.245Z,60.00
2017-06-28T02:47:59.521Z,60.00
2017-06-28T02:50:27.761Z,60.30
2017-06-28T02:52:56.776Z,60.20
2017-06-28T02:55:25.018Z,60.10
2017-06-28T02:57:54.041Z,60.40
2017-06-28T03:00:22.278Z,60.40
2017-06-28T03:02:51.317Z,60.40
2017-06-28T03:05:19.638Z,60.40
2017-06-28T03:07:47.863Z,60.40
2017-06-28T03:10:16.109Z,60.30
2017-06-28T03:12:45.137Z,60.70
2017-06-28T03:15:13.377Z,60.60
2017-06-28T03:17:42.512Z,60.60
2017-06-28T03:20:10.752Z,60.50
2017-06-28T03:22:39.056Z,60.60
2017-06-28T03:25:07.357Z,60.60
2017-06-28T03:27:35.674Z,60.80
2017-06-28T03:30:04.814Z,61.00
2017-06-28T03:32:33.037Z,61.00
2017-06-28T03:35:02.057Z,61.10
2017-06-28T03:37:30.300Z,61.10
2017-06-28T03:39:59.324Z,62.20
2017-06-28T03:42:27.814Z,62.00
2017-06-28T03:44:56.066Z,62.90
2017-06-28T03:47:25.073Z,64.70
2017-06-28T03:49:53.326Z,63.90
2017-06-28T03:52:22.325Z,63.00
2017-06-28T03:54:50.585Z,63.00
2017-06-28T03:57:19.589Z,63.30
2017-06-28T03:59:48.723Z,64.30
2017-06-28T04:02:16.962Z,64.30
2017-06-28T04:04:46.006Z,66.90
2017-06-28T04:07:14.261Z,66.90
2017-06-28T04:09:43.117Z,68.00
2017-06-28T04:12:11.329Z,68.10
2017-06-28T04:14:39.581Z,67.60
2017-06-28T04:17:07.823Z,68.50
2017-06-28T04:19:36.088Z,69.00
2017-06-28T04:22:04.334Z,70.10
2017-06-28T04:24:32.582Z,69.50
2017-06-28T04:27:00.873Z,69.90
2017-06-28T04:29:29.145Z,70.20
2017-06-28T04:31:57.393Z,70.10
2017-06-28T04:34:26.417Z,70.20
2017-06-28T04:36:54.667Z,70.20
2017-06-28T04:39:22.985Z,70.20
2017-06-28T04:41:51.237Z,71.00
2017-06-28T04:44:19.472Z,71.30
2017-06-28T04:46:47.846Z,71.50
2017-06-28T04:49:16.061Z,70.90
2017-06-28T04:51:44.374Z,70.80
2017-06-28T04:54:12.609Z,70.20
2017-06-28T04:56:40.948Z,71.10
2017-06-28T04:59:09.277Z,71.30
2017-06-28T05:01:37.561Z,72.00
2017-06-28T05:04:05.808Z,72.30
2017-06-28T05:06:34.141Z,72.70
2017-06-28T05:09:02.377Z,73.70
2017-06-28T05:11:30.664Z,73.40
2017-06-28T05:13:58.899Z,71.40
2017-06-28T05:16:27.154Z,71.30
2017-06-28T05:18:56.173Z,72.10
2017-06-28T05:21:25.468Z,71.20
2017-06-28T05:23:53.926Z,72.40
2017-06-28T05:26:22.158Z,72.90
2017-06-28T05:28:50.402Z,71.90
2017-06-28T05:31:18.658Z,71.60
2017-06-28T05:33:47.009Z,71.00
2017-06-28T05:36:15.254Z,71.70
2017-06-28T05:38:43.513Z,72.10
2017-06-28T05:41:11.782Z,72.50
2017-06-28T05:43:40.253Z,72.50
2017-06-28T05:46:09.265Z,72.70
2017-06-28T05:48:37.560Z,72.70
2017-06-28T05:51:06.986Z,73.30
2017-06-28T05:53:35.244Z,74.00
2017-06-28T05:56:03.668Z,74.90
2017-06-28T05:58:31.924Z,75.20
2017-06-28T06:01:00.179Z,75.30
2017-06-28T06:03:28.442Z,75.40
2017-06-28T06:05:56.687Z,75.50
2017-06-28T06:08:24.961Z,75.40
2017-06-28T06:10:53.197Z,75.40
2017-06-28T06:13:21.478Z,75.90
2017-06-28T06:15:50.533Z,76.70
2017-06-28T06:18:18.805Z,76.60
2017-06-28T06:20:47.051Z,76.30
2017-06-28T06:23:15.306Z,77.00
2017-06-28T06:25:44.313Z,77.00
2017-06-28T06:28:13.416Z,77.00
2017-06-28T06:30:41.658Z,77.30
2017-06-28T06:33:09.917Z,77.80
2017-06-28T06:35:38.178Z,78.30
2017-06-28T06:38:06.413Z,78.40
2017-06-28T06:40:34.681Z,78.50
2017-06-28T06:43:03.690Z,78.40
2017-06-28T06:45:32.000Z,78.40
2017-06-28T06:48:00.318Z,78.00
2017-06-28T06:50:28.644Z,78.10
2017-06-28T06:52:56.882Z,77.70
2017-06-28T06:55:25.953Z,78.60
2017-06-28T06:57:54.196Z,78.60
2017-06-28T07:00:23.373Z,78.80
2017-06-28T07:02:51.686Z,79.10
2017-06-28T07:05:19.950Z,79.70
2017-06-28T07:07:48.181Z,79.20
2017-06-28T07:10:16.533Z,79.90
2017-06-28T07:12:44.858Z,79.40
2017-06-28T07:15:13.105Z,79.80
2017-06-28T07:17:41.434Z,80.00
2017-06-28T07:20:09.687Z,80.30
2017-06-28T07:22:38.016Z,81.00
2017-06-28T07:25:07.038Z,82.00
2017-06-28T07:27:35.338Z,81.90
2017-06-28T07:30:03.668Z,82.20
2017-06-28T07:32:32.661Z,82.90
2017-06-28T07:35:01.677Z,83.20
2017-06-28T07:37:29.927Z,83.20
2017-06-28T07:39:58.173Z,83.50
2017-06-28T07:42:26.405Z,83.30
2017-06-28T07:44:54.737Z,83.80
2017-06-28T07:47:22.984Z,83.50
2017-06-28T07:49:51.217Z,83.20
2017-06-28T07:52:19.475Z,83.70
2017-06-28T07:54:48.482Z,84.40
2017-06-28T07:57:17.608Z,85.00
2017-06-28T07:59:45.841Z,85.00
2017-06-28T08:02:14.866Z,85.60
2017-06-28T08:04:43.096Z,84.90
2017-06-28T08:07:11.352Z,84.40
2017-06-28T08:09:39.586Z,84.40
2017-06-28T08:12:07.850Z,85.20
2017-06-28T08:14:36.100Z,84.50
2017-06-28T08:17:04.345Z,84.70
2017-06-28T08:19:32.643Z,84.50
2017-06-28T08:22:00.897Z,84.60
2017-06-28T08:24:29.134Z,84.90
2017-06-28T08:26:57.398Z,85.30
2017-06-28T08:29:25.658Z,85.20
2017-06-28T08:31:53.897Z,84.40
2017-06-28T08:34:22.132Z,85.00
2017-06-28T08:36:50.407Z,83.90
2017-06-28T08:39:19.413Z,84.40
2017-06-28T08:41:47.661Z,85.10
2017-06-28T08:44:16.677Z,84.40
2017-06-28T08:46:44.966Z,84.40
2017-06-28T08:49:13.213Z,83.60
2017-06-28T08:51:41.448Z,83.60
2017-06-28T08:54:09.706Z,82.90
2017-06-28T08:56:37.975Z,82.30
2017-06-28T08:59:06.341Z,81.60
2017-06-28T09:01:34.653Z,82.50
2017-06-28T09:04:02.904Z,82.50
2017-06-28T09:06:31.143Z,80.30
2017-06-28T09:08:59.473Z,79.80
2017-06-28T09:11:27.743Z,80.80
2017-06-28T09:13:55.994Z,79.20
2017-06-28T09:16:24.229Z,79.30
2017-06-28T09:18:53.286Z,79.00
2017-06-28T09:21:21.590Z,79.00
2017-06-28T09:23:49.925Z,78.30
2017-06-28T09:26:18.169Z,77.50
2017-06-28T09:28:46.472Z,76.60
2017-06-28T09:31:14.769Z,77.10
2017-06-28T09:33:43.026Z,77.00
2017-06-28T09:36:11.262Z,77.30
2017-06-28T09:38:39.506Z,76.90
2017-06-28T09:41:07.777Z,76.90
2017-06-28T09:43:36.034Z,76.70
2017-06-28T09:46:04.398Z,76.10
2017-06-28T09:48:32.669Z,75.50
2017-06-28T09:51:01.054Z,74.30
2017-06-28T09:53:29.322Z,73.20
2017-06-28T09:55:57.573Z,73.90
2017-06-28T09:58:25.811Z,73.90
2017-06-28T10:00:54.154Z,74.10
2017-06-28T10:03:22.394Z,71.90
2017-06-28T10:05:51.423Z,71.50
2017-06-28T10:08:19.709Z,71.50
2017-06-28T10:10:47.962Z,72.40
2017-06-28T10:13:16.199Z,71.90
2017-06-28T10:15:45.241Z,72.00
2017-06-28T10:18:13.481Z,72.00
2017-06-28T10:20:42.493Z,72.20
2017-06-28T10:23:10.777Z,72.20
2017-06-28T10:25:39.051Z,71.80
2017-06-28T10:28:07.287Z,71.00
2017-06-28T10:30:36.427Z,72.60
2017-06-28T10:33:04.664Z,72.60
2017-06-28T10:35:33.693Z,73.00
2017-06-28T10:38:01.969Z,72.90
2017-06-28T10:40:30.222Z,72.70
2017-06-28T10:42:58.541Z,73.50
2017-06-28T10:45:26.798Z,74.20
2017-06-28T10:47:55.057Z,79.90
2017-06-28T10:50:23.372Z,79.10
2017-06-28T10:52:51.637Z,77.90
2017-06-28T10:55:20.001Z,79.90
2017-06-28T10:57:48.279Z,81.30
2017-06-28T11:00:16.517Z,82.20
2017-06-28T11:02:45.538Z,83.80
2017-06-28T11:05:13.783Z,83.80
2017-06-28T11:07:42.802Z,80.20
2017-06-28T11:10:11.048Z,80.20
2017-06-28T11:12:40.065Z,79.10
2017-06-28T11:15:08.289Z,79.00
2017-06-28T11:17:36.533Z,79.10
2017-06-28T11:20:04.819Z,78.30
2017-06-28T11:22:33.074Z,76.10
2017-06-28T11:25:01.373Z,74.90
2017-06-28T11:27:29.697Z,73.50
2017-06-28T11:29:58.700Z,70.50
2017-06-28T11:32:26.973Z,70.40
2017-06-28T11:34:55.285Z,69.10
2017-06-28T11:37:23.554Z,67.20
2017-06-28T11:39:51.854Z,68.00
2017-06-28T11:42:20.165Z,68.60
2017-06-28T11:44:49.186Z,71.00
2017-06-28T11:47:17.442Z,70.90
2017-06-28T11:49:46.581Z,73.60
2017-06-28T11:52:14.910Z,73.50
2017-06-28T11:54:44.044Z,73.90
2017-06-28T11:57:12.273Z,73.90
2017-06-28T11:59:41.289Z,72.00
2017-06-28T12:02:09.534Z,72.70
2017-06-28T12:04:37.787Z,69.90
2017-06-28T12:07:06.040Z,67.80
2017-06-28T12:09:34.289Z,66.50
2017-06-28T12:12:02.605Z,66.50
2017-06-28T12:14:30.908Z,66.90
2017-06-28T12:16:59.137Z,66.20
2017-06-28T12:19:27.468Z,65.00
2017-06-28T12:21:56.553Z,63.80
2017-06-28T12:24:24.813Z,63.80
2017-06-28T12:26:53.046Z,62.80
2017-06-28T12:29:21.295Z,63.40
2017-06-28T12:31:50.289Z,60.70
2017-06-28T12:34:19.301Z,60.70
2017-06-28T12:36:47.737Z,60.70
2017-06-28T12:39:16.005Z,60.50
2017-06-28T12:41:44.244Z,59.30
2017-06-28T12:44:12.498Z,61.10
2017-06-28T12:46:40.745Z,60.40
2017-06-28T12:49:09.069Z,60.00
2017-06-28T12:51:37.325Z,60.90
2017-06-28T12:54:05.574Z,58.20
2017-06-28T12:56:34.601Z,57.80
2017-06-28T12:59:02.924Z,57.80
2017-06-28T13:01:31.168Z,58.70
2017-06-28T13:03:59.409Z,60.60
2017-06-28T13:06:28.541Z,62.40
2017-06-28T13:08:56.814Z,62.40
2017-06-28T13:11:25.065Z,66.10
2017-06-28T13:13:53.301Z,61.30
2017-06-28T13:16:21.572Z,59.50
2017-06-28T13:18:49.809Z,58.60
2017-06-28T13:21:18.060Z,59.50
2017-06-28T13:23:46.306Z,60.80
2017-06-28T13:26:14.569Z,63.20
2017-06-28T13:28:42.918Z,66.50
2017-06-28T13:31:11.181Z,69.00
2017-06-28T13:33:39.441Z,71.10
2017-06-28T13:36:08.449Z,73.60
2017-06-28T13:38:36.681Z,73.60
2017-06-28T13:41:05.705Z,72.40
2017-06-28T13:43:33.939Z,73.00
2017-06-28T13:46:02.201Z,74.00
2017-06-28T13:48:30.440Z,75.80
2017-06-28T13:50:58.673Z,74.70
2017-06-28T13:53:27.754Z,72.50
2017-06-28T13:55:56.093Z,72.90
2017-06-28T13:58:24.413Z,70.90
2017-06-28T14:00:52.615Z,70.60
2017-06-28T14:03:21.637Z,68.20
2017-06-28T14:05:49.871Z,68.20
2017-06-28T14:08:18.924Z,69.20
2017-06-28T14:10:47.176Z,68.40
2017-06-28T14:13:15.433Z,68.00
2017-06-28T14:15:43.675Z,65.70
2017-06-28T14:18:11.957Z,65.90
2017-06-28T14:20:40.985Z,67.50
2017-06-28T14:23:09.234Z,67.30
2017-06-28T14:25:38.234Z,66.30
2017-06-28T14:28:06.505Z,65.40
2017-06-28T14:30:35.505Z,65.90
2017-06-28T14:33:03.795Z,65.00
2017-06-28T14:35:32.120Z,65.00
2017-06-28T14:38:00.467Z,64.60
2017-06-28T14:40:28.709Z,63.60
2017-06-28T14:42:57.736Z,61.70
2017-06-28T14:45:25.971Z,61.60
2017-06-28T14:47:55.000Z,62.90
2017-06-28T14:50:23.238Z,62.10
2017-06-28T14:52:52.270Z,61.00
2017-06-28T14:55:20.624Z,60.90
2017-06-28T14:57:49.626Z,59.20
2017-06-28T15:00:17.917Z,59.80
2017-06-28T15:02:46.152Z,58.80
2017-06-28T15:05:15.173Z,57.10
2017-06-28T15:07:43.462Z,57.10
2017-06-28T15:10:11.841Z,58.00
2017-06-28T15:12:40.078Z,58.00
2017-06-28T15:15:09.212Z,58.60
2017-06-28T15:17:37.450Z,58.70
2017-06-28T15:20:05.794Z,57.00
2017-06-28T15:22:34.137Z,56.60
2017-06-28T15:25:02.411Z,56.40
2017-06-28T15:27:30.640Z,56.00
2017-06-28T15:29:59.729Z,55.50
2017-06-28T15:32:28.737Z,55.90
2017-06-28T15:34:57.151Z,55.90
2017-06-28T15:37:25.387Z,54.60
2017-06-28T15:39:54.464Z,55.20
2017-06-28T15:42:22.725Z,54.80
2017-06-28T15:44:50.981Z,55.20
2017-06-28T15:47:19.213Z,54.80
2017-06-28T15:49:48.233Z,52.90
2017-06-28T15:52:16.470Z,52.80
2017-06-28T15:54:45.501Z,54.00
2017-06-28T15:57:13.749Z,53.30
2017-06-28T15:59:42.004Z,53.20
2017-06-28T16:02:11.062Z,52.20
2017-06-28T16:04:39.385Z,52.30
2017-06-28T16:07:08.521Z,52.80
2017-06-28T16:09:36.805Z,52.80
2017-06-28T16:12:05.133Z,52.70
2017-06-28T16:14:34.137Z,53.20
2017-06-28T16:17:02.405Z,53.10
2017-06-28T16:19:31.410Z,52.80
2017-06-28T16:21:59.669Z,52.80
2017-06-28T16:24:28.723Z,52.80
2017-06-28T16:26:56.959Z,52.80
2017-06-28T16:29:25.195Z,52.90
2017-06-28T16:31:53.442Z,53.40
2017-06-28T16:34:21.730Z,53.20
2017-06-28T16:36:49.984Z,53.30
2017-06-28T16:39:18.318Z,53.60
2017-06-28T16:41:47.353Z,52.80
2017-06-28T16:44:15.605Z,52.80
2017-06-28T16:46:43.854Z,52.90
2017-06-28T16:49:12.863Z,53.00
2017-06-28T16:51:42.192Z,52.50
2017-06-28T16:54:10.513Z,52.50
2017-06-28T16:56:38.775Z,52.80
2017-06-28T16:59:07.120Z,52.90
2017-06-28T17:01:35.364Z,51.90
2017-06-28T17:04:04.490Z,51.50
2017-06-28T17:06:32.733Z,51.50
2017-06-28T17:09:01.745Z,51.70
2017-06-28T17:11:29.990Z,51.70
2017-06-28T17:13:59.005Z,51.30
2017-06-28T17:16:27.257Z,51.30
2017-06-28T17:18:56.545Z,52.30
2017-06-28T17:21:24.837Z,51.70
2017-06-28T17:23:53.855Z,51.90
2017-06-28T17:26:22.137Z,51.90
2017-06-28T17:28:50.377Z,51.90
2017-06-28T17:31:19.528Z,52.90
2017-06-28T17:33:47.775Z,52.90
2017-06-28T17:36:16.008Z,52.70
2017-06-28T17:38:44.253Z,52.50
2017-06-28T17:41:12.517Z,52.70
2017-06-28T17:43:40.765Z,52.80
2017-06-28T17:46:09.113Z,52.80
2017-06-28T17:48:37.338Z,52.70
2017-06-28T17:51:05.581Z,53.00
2017-06-28T17:53:33.861Z,53.00
2017-06-28T17:56:02.117Z,52.70
2017-06-28T17:58:30.452Z,52.70
2017-06-28T18:00:58.705Z,52.80
2017-06-28T18:03:27.004Z,52.70
2017-06-28T18:05:55.262Z,52.30
2017-06-28T18:08:23.595Z,52.30
2017-06-28T18:10:51.824Z,52.70
2017-06-28T18:13:20.138Z,52.50
2017-06-28T18:15:48.479Z,52.70
2017-06-28T18:18:16.810Z,52.90
2017-06-28T18:20:45.828Z,53.20
2017-06-28T18:23:14.271Z,53.10
2017-06-28T18:25:42.492Z,53.10
2017-06-28T18:28:10.727Z,53.20
2017-06-28T18:30:39.776Z,54.00
2017-06-28T18:33:08.000Z,53.60
2017-06-28T18:35:37.131Z,54.00
2017-06-28T18:38:05.378Z,54.00
2017-06-28T18:40:34.409Z,54.10
2017-06-28T18:43:02.668Z,54.10
2017-06-28T18:45:30.925Z,54.40
2017-06-28T18:47:59.241Z,54.40
2017-06-28T18:50:27.485Z,54.60
2017-06-28T18:52:55.730Z,55.10
2017-06-28T18:55:23.972Z,55.60
2017-06-28T18:57:52.259Z,55.30
2017-06-28T19:00:20.488Z,55.50
2017-06-28T19:02:48.726Z,55.50
2017-06-28T19:05:16.981Z,55.70
2017-06-28T19:07:45.215Z,56.20
2017-06-28T19:10:13.475Z,56.30
2017-06-28T19:12:41.785Z,56.40
2017-06-28T19:15:10.043Z,56.10
2017-06-28T19:17:38.297Z,55.90
2017-06-28T19:20:07.303Z,56.40
2017-06-28T19:22:35.657Z,56.50
2017-06-28T19:25:04.653Z,56.60
2017-06-28T19:27:33.668Z,56.70
2017-06-28T19:30:01.933Z,56.70
2017-06-28T19:32:30.950Z,56.70
2017-06-28T19:34:59.188Z,56.70
2017-06-28T19:37:28.323Z,56.50
2017-06-28T19:39:56.554Z,56.60
2017-06-28T19:42:25.571Z,56.90
2017-06-28T19:44:53.800Z,56.90
2017-06-28T19:47:22.047Z,56.50
2017-06-28T19:49:50.277Z,56.80
2017-06-28T19:52:19.407Z,56.80
2017-06-28T19:54:47.648Z,56.90
2017-06-28T19:57:16.808Z,57.50
2017-06-28T19:59:45.057Z,57.40
2017-06-28T20:02:13.313Z,57.10
2017-06-28T20:04:41.610Z,57.50
2017-06-28T20:07:09.988Z,57.50
2017-06-28T20:09:38.263Z,57.50
2017-06-28T20:12:06.565Z,57.50
2017-06-28T20:14:34.817Z,57.80
2017-06-28T20:17:03.092Z,57.60
2017-06-28T20:19:31.421Z,57.40
2017-06-28T20:22:00.425Z,57.90
2017-06-28T20:24:29.734Z,58.10
2017-06-28T20:26:58.934Z,58.30
2017-06-28T20:29:27.942Z,58.90
2017-06-28T20:31:56.190Z,58.30
2017-06-28T20:34:25.217Z,58.70
2017-06-28T20:36:53.505Z,59.20
2017-06-28T20:39:21.752Z,58.60
2017-06-28T20:41:49.996Z,58.60
2017-06-28T20:44:19.032Z,58.40
2017-06-28T20:46:47.282Z,58.40
2017-06-28T20:49:15.533Z,58.20
2017-06-28T20:51:43.856Z,58.60
2017-06-28T20:54:12.114Z,58.80
2017-06-28T20:56:40.357Z,58.80
2017-06-28T20:59:08.605Z,58.70
2017-06-28T21:01:36.844Z,59.00
2017-06-28T21:04:05.147Z,59.20
2017-06-28T21:06:33.374Z,59.30
2017-06-28T21:09:02.445Z,59.30
2017-06-28T21:11:30.683Z,59.90
2017-06-28T21:13:59.004Z,59.60
2017-06-28T21:16:27.253Z,59.30
2017-06-28T21:18:55.510Z,59.50
2017-06-28T21:21:23.761Z,59.50
2017-06-28T21:23:52.012Z,59.50
2017-06-28T21:26:21.062Z,60.30
2017-06-28T21:28:49.341Z,60.20
2017-06-28T21:31:17.603Z,60.30
2017-06-28T21:33:45.847Z,60.20
2017-06-28T21:36:14.879Z,60.50
2017-06-28T21:38:43.155Z,60.50
2017-06-28T21:41:11.406Z,60.90
2017-06-28T21:43:39.636Z,60.70
2017-06-28T21:46:07.969Z,60.90
2017-06-28T21:48:36.214Z,60.60
2017-06-28T21:51:05.216Z,61.00
2017-06-28T21:53:33.454Z,60.90
2017-06-28T21:56:01.709Z,61.20
2017-06-28T21:58:29.941Z,60.80
2017-06-28T22:00:58.208Z,60.70
2017-06-28T22:03:27.203Z,61.20
2017-06-28T22:05:56.223Z,61.40
2017-06-28T22:08:24.456Z,62.20
2017-06-28T22:10:53.491Z,61.70
2017-06-28T22:13:21.726Z,61.50
2017-06-28T22:15:50.749Z,61.80
2017-06-28T22:18:30.970Z,61.80
2017-06-28T22:20:59.996Z,62.20
2017-06-28T22:23:28.341Z,62.10
2017-06-28T22:25:57.380Z,62.60
2017-06-28T22:28:25.666Z,62.50
2017-06-28T22:30:53.963Z,62.40
2017-06-28T22:33:22.214Z,62.30
2017-06-28T22:35:50.545Z,62.20
2017-06-28T22:38:19.557Z,62.40
2017-06-28T22:40:47.861Z,62.30
2017-06-28T22:43:16.184Z,62.60
2017-06-28T22:45:45.248Z,63.40
2017-06-28T22:48:13.499Z,62.60
2017-06-28T22:50:41.737Z,62.60
2017-06-28T22:53:10.750Z,63.10
2017-06-28T22:55:38.986Z,63.10
2017-06-28T22:58:07.248Z,63.20
2017-06-28T23:00:35.472Z,63.40
2017-06-28T23:03:03.738Z,63.50
2017-06-28T23:05:31.969Z,63.40
2017-06-28T23:08:00.322Z,63.80
2017-06-28T23:10:28.586Z,63.80
2017-06-28T23:12:56.833Z,64.70
2017-06-28T23:15:25.861Z,64.50
2017-06-28T23:17:54.155Z,64.50
2017-06-28T23:20:22.393Z,64.70
2017-06-28T23:22:50.634Z,64.30
2017-06-28T23:25:18.887Z,64.00
2017-06-28T23:27:47.125Z,64.30
2017-06-28T23:30:15.411Z,64.00
2017-06-28T23:32:43.641Z,63.50
2017-06-28T23:35:12.777Z,64.30
2017-06-28T23:37:41.016Z,63.50
2017-06-28T23:40:10.149Z,63.50
2017-06-28T23:42:38.443Z,63.50
2017-06-28T23:45:06.802Z,64.40
2017-06-28T23:47:35.045Z,63.60
2017-06-28T23:50:04.057Z,63.80
2017-06-28T23:52:32.389Z,63.80
2017-06-28T23:55:00.724Z,64.20
2017-06-28T23:57:28.954Z,64.00
2017-06-28T23:59:57.224Z,63.90
